Harrison, New Jersey
Current Conditions -  °F | °C
As of 10:27 AM on Wednesday 26 Nov 2014 (Local Time) from KEWR Reporting Station
Light Snow Light Snow  
Wind Chill: 26°   Ceiling: 600
Heat Index: 34°   Visibility: 1.7mi
Dew Point: 32°   Wind: 10mph
Humidity: 93%   Direction: 20°NNE
Pressure: 30.12"   Gusts: NA
Location:  40.75°N, 74.16°W
Report Text: KEWR 261527Z 02009KT 1 3/4SM -SNRA BR BKN006 BKN014 OVC020 01/00 A3012 RMK AO2 TWR VIS 2 CIG 005V007 PLE01 P0006
Loading
Personal Weather Stations






























Interactive Weather Map New forecast layout! Learn more

10-Day Weather Forecast

Advertisements
Track Severe Weather on mobile